• Join FlightAware (Why Join?)
  • Login
  • US Flag 
03:18AM EDT


 

Airport Tracker/Info


-or-


 

Live Flight TrackerFlight Track Log ✈ CSN6864 ✈ 20-Oct-2013 ✈ ZWAK / AKU - ZWWW / URC

Flight Track Log - Related Links

Times and Time Zones

All times are in EDT time to prevent confusion due to time zone crossing. See the CSN6864 flight status page for this flight to view local times or setup timezone preferences in your user account.

Time Position Orientation Groundspeed Altitude Reporting Facility
EDT Latitude Longitude Course Direction KTS MPH feet Rate Location/Type
02:05AM 41.3358 80.4683 61° Northeast  Level Estimated
02:06AM 41.4088 80.6454 61° Northeast  Level Estimated
02:07AM 41.4816 80.8229 61° Northeast  Level Estimated
02:08AM 41.5541 81.0007 61° Northeast  Level Estimated
02:09AM 41.6263 81.1790 61° Northeast  Level Estimated
02:10AM 41.6982 81.3576 62° Northeast  Level Estimated
02:11AM 41.7699 81.5367 62° Northeast  Level Estimated
02:12AM 41.8413 81.7161 62° Northeast  Level Estimated
02:13AM 41.9123 81.8960 62° Northeast  Level Estimated
02:14AM 41.9832 82.0763 62° Northeast  Level Estimated
02:15AM 42.0537 82.2569 62° Northeast  Level Estimated
02:16AM 42.1240 82.4380 62° Northeast  Level Estimated
02:17AM 42.1939 82.6195 62° Northeast  Level Estimated
02:18AM 42.2636 82.8013 63° Northeast  Level Estimated
02:19AM 42.3330 82.9836 63° Northeast  Level Estimated
02:20AM 42.4021 83.1662 63° Northeast  Level Estimated
02:21AM 42.4709 83.3493 63° Northeast  Level Estimated
02:22AM 42.5394 83.5328 63° Northeast  Level Estimated
02:23AM 42.6077 83.7166 63° Northeast  Level Estimated
02:24AM 42.6756 83.9009 63° Northeast  Level Estimated
02:25AM 42.7432 84.0856 63° Northeast  Level Estimated
02:26AM 42.8106 84.2707 64° Northeast  Level Estimated
02:27AM 42.8776 84.4561 64° Northeast  Level Estimated
02:28AM 42.9443 84.6420 64° Northeast  Level Estimated
02:29AM 43.0108 84.8283 64° Northeast  Level Estimated
02:30AM 43.0769 85.0150 64° Northeast  Level Estimated
02:31AM 43.1427 85.2021 64° Northeast  Level Estimated
02:32AM 43.2082 85.3896 64° Northeast  Level Estimated
02:33AM 43.2735 85.5775 64° Northeast  Level Estimated
02:34AM 43.3384 85.7658 65° Northeast  Level Estimated
02:35AM 43.4030 85.9545 65° Northeast  Level Estimated
02:36AM 43.4673 86.1436 65° Northeast  Level Estimated
02:37AM 43.5312 86.3331 65° Northeast  Level Estimated
02:38AM 43.5949 86.5230 65° Northeast  Level Estimated
02:39AM 43.6583 86.7133 65° Northeast  Level Estimated
02:40AM 43.7213 86.9040 65° Northeast  Level Estimated
02:41AM 43.7840 87.0951 66° East  Level Estimated
02:42AM 43.8464 87.2866 66° East  Level Estimated
02:43AM 43.9071 87.4742 66° East  Level Estimated
02:44AM 43.9071 87.4742 144° Southeast  Level Estimated
02:45AM 43.9071 87.4742 144° Southeast  Level Estimated
02:46AM 43.9071 87.4742 144° Southeast  Level Estimated
02:47AM 43.9071 87.4742 144° Southeast  Level Estimated
02:48AM 43.9071 87.4742 144° Southeast  Level Estimated
02:49AM 43.9071 87.4742 144° Southeast  Level Estimated
02:50AM 43.9071 87.4742 144° Southeast  Level Estimated
02:51AM 43.9071 87.4742 144° Southeast  Level Estimated
02:52AM 43.9071 87.4742 144° Southeast  Level Estimated
02:53AM 43.9071 87.4742 144° Southeast  Level Estimated
02:54AM 43.9071 87.4742 144° Southeast  Level Estimated
02:55AM 43.9071 87.4742 144° Southeast  Level Estimated
02:56AM 43.9071 87.4742 144° Southeast  Level Estimated
02:57AM 43.9071 87.4742 144° Southeast  Level Estimated
02:58AM 43.9071 87.4742 144° Southeast  Level Estimated
02:59AM 43.9071 87.4742 144° Southeast  Level Estimated